sensor_id;sensor_type;location;lat;lon;timestamp;pressure;altitude;pressure_sealevel;temperature;humidity
16431;BME280;8325;49.284;7.238;2023-03-26T04:02:17;97859.34;;;6.83;100.00
16431;BME280;8325;49.284;7.238;2023-03-26T04:06:40;97849.94;;;6.90;100.00
16431;BME280;8325;49.284;7.238;2023-03-26T04:10:54;97837.09;;;6.88;100.00
16431;BME280;8325;49.284;7.238;2023-03-26T04:15:24;97837.88;;;6.97;100.00
16431;BME280;8325;49.284;7.238;2023-03-26T04:19:36;97839.47;;;7.06;100.00
16431;BME280;8325;49.284;7.238;2023-03-26T04:23:51;97826.19;;;7.01;100.00
16431;BME280;8325;49.284;7.238;2023-03-26T04:28:30;97809.34;;;6.97;100.00
16431;BME280;8325;49.284;7.238;2023-03-26T04:33:00;97812.91;;;6.96;100.00
16431;BME280;8325;49.284;7.238;2023-03-26T04:37:25;97810.00;;;6.91;100.00
16431;BME280;8325;49.284;7.238;2023-03-26T04:41:50;97811.16;;;6.88;100.00
16431;BME280;8325;49.284;7.238;2023-03-26T04:46:04;97807.44;;;6.83;100.00
16431;BME280;8325;49.284;7.238;2023-03-26T04:50:22;97789.56;;;6.88;100.00
16431;BME280;8325;49.284;7.238;2023-03-26T04:54:35;97768.13;;;6.94;100.00
16431;BME280;8325;49.284;7.238;2023-03-26T04:58:53;97751.88;;;7.00;100.00
16431;BME280;8325;49.284;7.238;2023-03-26T05:03:09;97742.59;;;7.06;100.00
16431;BME280;8325;49.284;7.238;2023-03-26T05:07:22;97738.50;;;7.11;100.00
16431;BME280;8325;49.284;7.238;2023-03-26T05:11:44;97721.28;;;7.10;100.00
16431;BME280;8325;49.284;7.238;2023-03-26T05:15:56;97718.06;;;7.08;100.00
16431;BME280;8325;49.284;7.238;2023-03-26T05:20:25;97717.44;;;7.06;100.00
16431;BME280;8325;49.284;7.238;2023-03-26T05:24:38;97714.72;;;7.00;100.00
16431;BME280;8325;49.284;7.238;2023-03-26T05:28:50;97708.75;;;6.91;100.00
16431;BME280;8325;49.284;7.238;2023-03-26T05:33:23;97701.31;;;6.88;100.00
16431;BME280;8325;49.284;7.238;2023-03-26T05:37:56;97691.09;;;6.86;100.00
16431;BME280;8325;49.284;7.238;2023-03-26T05:42:09;97670.47;;;6.93;100.00
16431;BME280;8325;49.284;7.238;2023-03-26T05:46:39;97670.13;;;6.96;100.00
16431;BME280;8325;49.284;7.238;2023-03-26T05:50:55;97666.84;;;7.02;100.00
16431;BME280;8325;49.284;7.238;2023-03-26T05:55:10;97665.03;;;7.03;100.00
16431;BME280;8325;49.284;7.238;2023-03-26T05:59:40;97660.69;;;6.95;100.00
16431;BME280;8325;49.284;7.238;2023-03-26T06:04:11;97648.00;;;7.00;100.00
16431;BME280;8325;49.284;7.238;2023-03-26T06:08:29;97635.13;;;7.07;100.00
16431;BME280;8325;49.284;7.238;2023-03-26T06:12:41;97632.78;;;6.97;100.00
16431;BME280;8325;49.284;7.238;2023-03-26T06:16:53;97611.03;;;6.98;100.00
16431;BME280;8325;49.284;7.238;2023-03-26T06:21:05;97592.28;;;6.88;100.00
16431;BME280;8325;49.284;7.238;2023-03-26T06:25:28;97580.16;;;6.80;100.00
16431;BME280;8325;49.284;7.238;2023-03-26T06:30:05;97552.94;;;6.76;100.00
16431;BME280;8325;49.284;7.238;2023-03-26T06:34:37;97544.06;;;6.71;100.00
16431;BME280;8325;49.284;7.238;2023-03-26T06:38:49;97554.28;;;6.72;100.00
16431;BME280;8325;49.284;7.238;2023-03-26T06:43:01;97553.41;;;6.80;100.00
16431;BME280;8325;49.284;7.238;2023-03-26T06:47:32;97553.06;;;6.83;100.00
16431;BME280;8325;49.284;7.238;2023-03-26T06:52:03;97540.59;;;6.78;100.00
16431;BME280;8325;49.284;7.238;2023-03-26T06:56:26;97541.88;;;6.82;100.00
16431;BME280;8325;49.284;7.238;2023-03-26T07:00:55;97536.44;;;6.92;100.00
16431;BME280;8325;49.284;7.238;2023-03-26T07:05:26;97521.38;;;6.87;100.00
16431;BME280;8325;49.284;7.238;2023-03-26T07:09:56;97520.09;;;6.83;100.00
16431;BME280;8325;49.284;7.238;2023-03-26T07:14:28;97512.56;;;6.74;100.00
16431;BME280;8325;49.284;7.238;2023-03-26T07:19:01;97496.84;;;6.75;100.00
16431;BME280;8325;49.284;7.238;2023-03-26T07:23:18;97491.75;;;6.82;100.00
16431;BME280;8325;49.284;7.238;2023-03-26T07:28:04;97494.50;;;6.80;100.00
16431;BME280;8325;49.284;7.238;2023-03-26T07:37:14;97492.22;;;7.00;100.00
16431;BME280;8325;49.284;7.238;2023-03-26T07:41:54;97485.97;;;7.09;100.00
16431;BME280;8325;49.284;7.238;2023-03-26T07:46:30;97478.91;;;7.18;100.00
16431;BME280;8325;49.284;7.238;2023-03-26T07:51:15;97486.06;;;7.16;100.00
16431;BME280;8325;49.284;7.238;2023-03-26T07:55:54;97483.31;;;7.18;100.00
16431;BME280;8325;49.284;7.238;2023-03-26T08:00:48;97481.97;;;7.36;100.00
16431;BME280;8325;49.284;7.238;2023-03-26T08:05:29;97479.31;;;7.66;100.00
16431;BME280;8325;49.284;7.238;2023-03-26T08:10:11;97467.81;;;7.90;100.00
16431;BME280;8325;49.284;7.238;2023-03-26T08:27:39;97466.06;;;8.55;100.00
16431;BME280;8325;49.284;7.238;2023-03-26T08:31:52;97457.53;;;8.61;100.00
16431;BME280;8325;49.284;7.238;2023-03-26T08:36:06;97450.25;;;8.78;100.00
16431;BME280;8325;49.284;7.238;2023-03-26T08:40:37;97445.38;;;8.96;100.00
16431;BME280;8325;49.284;7.238;2023-03-26T08:53:49;97446.88;;;9.12;100.00
16431;BME280;8325;49.284;7.238;2023-03-26T09:07:59;97434.56;;;9.34;100.00
16431;BME280;8325;49.284;7.238;2023-03-26T09:12:06;97434.06;;;9.59;100.00
16431;BME280;8325;49.284;7.238;2023-03-26T09:16:56;97434.06;;;9.59;100.00
16431;BME280;8325;49.284;7.238;2023-03-26T09:26:24;97449.09;;;9.57;100.00
16431;BME280;8325;49.284;7.238;2023-03-26T09:40:15;97460.03;;;9.39;100.00
16431;BME280;8325;49.284;7.238;2023-03-26T09:53:50;97466.22;;;9.31;100.00
16431;BME280;8325;49.284;7.238;2023-03-26T10:03:08;97453.81;;;9.81;99.64
16431;BME280;8325;49.284;7.238;2023-03-26T10:12:17;97453.88;;;10.01;94.45
16431;BME280;8325;49.284;7.238;2023-03-26T10:16:55;97456.28;;;10.03;95.20
16431;BME280;8325;49.284;7.238;2023-03-26T10:44:05;97482.50;;;10.56;79.46
16431;BME280;8325;49.284;7.238;2023-03-26T10:58:03;97485.50;;;10.46;78.40
16431;BME280;8325;49.284;7.238;2023-03-26T11:02:30;97495.56;;;10.56;79.92
16431;BME280;8325;49.284;7.238;2023-03-26T11:07:01;97483.28;;;10.50;78.03
16431;BME280;8325;49.284;7.238;2023-03-26T11:15:56;97487.94;;;10.68;78.60
16431;BME280;8325;49.284;7.238;2023-03-26T11:20:31;97486.28;;;11.26;78.14
16431;BME280;8325;49.284;7.238;2023-03-26T11:30:15;97482.66;;;11.41;74.60
16431;BME280;8325;49.284;7.238;2023-03-26T11:34:44;97478.16;;;11.61;75.03
16431;BME280;8325;49.284;7.238;2023-03-26T11:39:02;97475.75;;;11.60;70.74
16431;BME280;8325;49.284;7.238;2023-03-26T11:43:21;97465.38;;;11.98;71.32
16431;BME280;8325;49.284;7.238;2023-03-26T11:47:41;97449.84;;;12.35;66.11
16431;BME280;8325;49.284;7.238;2023-03-26T11:51:55;97447.72;;;12.18;66.99
16431;BME280;8325;49.284;7.238;2023-03-26T11:56:23;97438.34;;;12.36;66.41
16431;BME280;8325;49.284;7.238;2023-03-26T12:00:37;97421.56;;;12.50;66.98
16431;BME280;8325;49.284;7.238;2023-03-26T12:04:51;97416.78;;;12.65;64.62
16431;BME280;8325;49.284;7.238;2023-03-26T12:09:16;97412.88;;;12.75;62.48
16431;BME280;8325;49.284;7.238;2023-03-26T12:13:50;97426.19;;;12.48;62.58
16431;BME280;8325;49.284;7.238;2023-03-26T12:18:26;97416.81;;;12.34;63.92
16431;BME280;8325;49.284;7.238;2023-03-26T12:22:38;97414.53;;;12.12;62.64
16431;BME280;8325;49.284;7.238;2023-03-26T12:26:59;97421.50;;;12.25;63.83
16431;BME280;8325;49.284;7.238;2023-03-26T12:31:15;97436.41;;;12.25;64.49
16431;BME280;8325;49.284;7.238;2023-03-26T12:35:32;97431.66;;;12.15;66.17
16431;BME280;8325;49.284;7.238;2023-03-26T12:39:45;97429.28;;;12.07;67.74
16431;BME280;8325;49.284;7.238;2023-03-26T12:44:35;97441.03;;;11.91;65.22
16431;BME280;8325;49.284;7.238;2023-03-26T12:49:10;97437.81;;;11.95;66.77
16431;BME280;8325;49.284;7.238;2023-03-26T13:03:09;97423.75;;;11.83;68.80
16431;BME280;8325;49.284;7.238;2023-03-26T13:12:05;97436.34;;;11.48;70.01
16431;BME280;8325;49.284;7.238;2023-03-26T13:21:25;97423.97;;;11.30;69.40
16431;BME280;8325;49.284;7.238;2023-03-26T13:34:58;97438.72;;;10.85;73.35
16431;BME280;8325;49.284;7.238;2023-03-26T13:43:58;97441.34;;;10.38;77.87
16431;BME280;8325;49.284;7.238;2023-03-26T13:48:16;97428.06;;;10.26;77.97
16431;BME280;8325;49.284;7.238;2023-03-26T13:52:44;97427.53;;;9.76;79.70
16431;BME280;8325;49.284;7.238;2023-03-26T13:57:36;97434.19;;;9.85;79.46
16431;BME280;8325;49.284;7.238;2023-03-26T14:01:57;97432.34;;;9.79;78.52
16431;BME280;8325;49.284;7.238;2023-03-26T14:06:27;97430.91;;;9.70;79.35
16431;BME280;8325;49.284;7.238;2023-03-26T14:10:44;97437.34;;;9.74;79.77
16431;BME280;8325;49.284;7.238;2023-03-26T14:15:22;97436.94;;;9.71;78.80
16431;BME280;8325;49.284;7.238;2023-03-26T14:20:19;97447.25;;;9.51;80.02
16431;BME280;8325;49.284;7.238;2023-03-26T14:25:07;97454.81;;;9.39;80.58
16431;BME280;8325;49.284;7.238;2023-03-26T14:29:28;97456.88;;;9.09;82.58
16431;BME280;8325;49.284;7.238;2023-03-26T14:33:49;97462.69;;;9.11;82.28
16431;BME280;8325;49.284;7.238;2023-03-26T14:47:18;97443.44;;;9.05;82.56
16431;BME280;8325;49.284;7.238;2023-03-26T14:51:53;97444.16;;;9.27;81.60
16431;BME280;8325;49.284;7.238;2023-03-26T14:56:32;97441.13;;;9.65;80.90
16431;BME280;8325;49.284;7.238;2023-03-26T15:01:22;97439.56;;;9.77;80.05
16431;BME280;8325;49.284;7.238;2023-03-26T15:10:05;97430.81;;;10.25;78.49
16431;BME280;8325;49.284;7.238;2023-03-26T15:14:43;97442.53;;;10.35;78.34
16431;BME280;8325;49.284;7.238;2023-03-26T15:33:26;97466.47;;;9.36;87.61
16431;BME280;8325;49.284;7.238;2023-03-26T15:42:47;97509.91;;;9.01;95.27
16431;BME280;8325;49.284;7.238;2023-03-26T16:01:16;97501.38;;;9.14;98.66
16431;BME280;8325;49.284;7.238;2023-03-26T16:05:58;97494.25;;;9.29;96.48
16431;BME280;8325;49.284;7.238;2023-03-26T16:10:33;97508.63;;;9.18;97.08
16431;BME280;8325;49.284;7.238;2023-03-26T16:15:18;97500.44;;;9.21;95.73
16431;BME280;8325;49.284;7.238;2023-03-26T16:19:35;97506.84;;;9.19;96.97
16431;BME280;8325;49.284;7.238;2023-03-26T16:28:25;97503.38;;;9.12;96.38
16431;BME280;8325;49.284;7.238;2023-03-26T16:32:47;97507.63;;;8.91;95.05
16431;BME280;8325;49.284;7.238;2023-03-26T16:41:59;97512.50;;;8.73;95.80
16431;BME280;8325;49.284;7.238;2023-03-26T16:46:26;97513.88;;;8.69;96.33
16431;BME280;8325;49.284;7.238;2023-03-26T16:55:34;97512.13;;;8.55;97.21
16431;BME280;8325;49.284;7.238;2023-03-26T17:04:20;97534.06;;;8.45;96.87
16431;BME280;8325;49.284;7.238;2023-03-26T17:08:55;97519.94;;;8.55;96.58
16431;BME280;8325;49.284;7.238;2023-03-26T17:13:20;97515.72;;;8.53;94.52
16431;BME280;8325;49.284;7.238;2023-03-26T17:30:59;97525.63;;;8.07;95.30
16431;BME280;8325;49.284;7.238;2023-03-26T17:35:14;97533.59;;;8.05;95.91
16431;BME280;8325;49.284;7.238;2023-03-26T17:43:50;97526.19;;;7.88;95.91
16431;BME280;8325;49.284;7.238;2023-03-26T17:48:11;97531.66;;;7.78;96.64
16431;BME280;8325;49.284;7.238;2023-03-26T17:52:34;97530.41;;;7.74;96.11
16431;BME280;8325;49.284;7.238;2023-03-26T17:56:54;97527.91;;;7.66;95.73
16431;BME280;8325;49.284;7.238;2023-03-26T18:05:36;97529.69;;;7.50;97.01
16431;BME280;8325;49.284;7.238;2023-03-26T18:18:58;97525.94;;;7.53;97.37
16431;BME280;8325;49.284;7.238;2023-03-26T18:23:20;97528.97;;;7.56;96.85
16431;BME280;8325;49.284;7.238;2023-03-26T18:27:36;97529.97;;;7.55;97.45
16431;BME280;8325;49.284;7.238;2023-03-26T18:32:00;97528.75;;;7.51;97.53
16431;BME280;8325;49.284;7.238;2023-03-26T18:36:15;97532.94;;;7.52;97.22
16431;BME280;8325;49.284;7.238;2023-03-26T18:40:33;97533.28;;;7.49;97.47
16431;BME280;8325;49.284;7.238;2023-03-26T18:44:50;97542.97;;;7.55;97.70
16431;BME280;8325;49.284;7.238;2023-03-26T18:49:02;97539.38;;;7.56;97.37
16431;BME280;8325;49.284;7.238;2023-03-26T18:53:19;97540.19;;;7.57;97.29
16431;BME280;8325;49.284;7.238;2023-03-26T18:57:32;97545.03;;;7.60;96.99
16431;BME280;8325;49.284;7.238;2023-03-26T19:01:46;97546.47;;;7.63;97.46
16431;BME280;8325;49.284;7.238;2023-03-26T19:05:59;97542.34;;;7.68;97.29
16431;BME280;8325;49.284;7.238;2023-03-26T19:10:16;97551.75;;;7.69;97.48
16431;BME280;8325;49.284;7.238;2023-03-26T19:14:31;97553.53;;;7.69;98.63
16431;BME280;8325;49.284;7.238;2023-03-26T19:18:47;97560.44;;;7.61;99.87
16431;BME280;8325;49.284;7.238;2023-03-26T19:22:59;97564.03;;;7.60;100.00
16431;BME280;8325;49.284;7.238;2023-03-26T19:27:11;97573.44;;;7.61;100.00
16431;BME280;8325;49.284;7.238;2023-03-26T19:31:25;97578.00;;;7.59;100.00
16431;BME280;8325;49.284;7.238;2023-03-26T19:35:42;97592.63;;;7.60;100.00
16431;BME280;8325;49.284;7.238;2023-03-26T19:39:59;97587.44;;;7.60;100.00
16431;BME280;8325;49.284;7.238;2023-03-26T19:44:19;97597.25;;;7.50;100.00
16431;BME280;8325;49.284;7.238;2023-03-26T19:48:33;97603.16;;;7.44;100.00
16431;BME280;8325;49.284;7.238;2023-03-26T19:53:10;97604.50;;;7.40;100.00
16431;BME280;8325;49.284;7.238;2023-03-26T19:57:31;97611.50;;;7.40;100.00
16431;BME280;8325;49.284;7.238;2023-03-26T20:01:46;97617.84;;;7.37;100.00
16431;BME280;8325;49.284;7.238;2023-03-26T20:05:58;97614.72;;;7.27;100.00
16431;BME280;8325;49.284;7.238;2023-03-26T20:10:10;97617.81;;;7.22;100.00
16431;BME280;8325;49.284;7.238;2023-03-26T20:14:22;97628.50;;;7.27;100.00
16431;BME280;8325;49.284;7.238;2023-03-26T20:18:36;97636.19;;;7.21;100.00
16431;BME280;8325;49.284;7.238;2023-03-26T20:22:49;97637.94;;;7.20;100.00
16431;BME280;8325;49.284;7.238;2023-03-26T20:27:00;97644.66;;;7.14;100.00
16431;BME280;8325;49.284;7.238;2023-03-26T20:31:17;97650.66;;;7.15;100.00
16431;BME280;8325;49.284;7.238;2023-03-26T20:35:30;97655.31;;;7.20;100.00
16431;BME280;8325;49.284;7.238;2023-03-26T20:39:47;97667.16;;;7.22;100.00
16431;BME280;8325;49.284;7.238;2023-03-26T20:43:58;97672.53;;;7.21;100.00
16431;BME280;8325;49.284;7.238;2023-03-26T20:48:10;97681.03;;;7.14;100.00
16431;BME280;8325;49.284;7.238;2023-03-26T20:52:22;97685.22;;;7.15;100.00
16431;BME280;8325;49.284;7.238;2023-03-26T20:56:35;97690.13;;;7.10;100.00
16431;BME280;8325;49.284;7.238;2023-03-26T21:00:48;97704.25;;;7.08;100.00
16431;BME280;8325;49.284;7.238;2023-03-26T21:05:01;97699.25;;;7.06;100.00
16431;BME280;8325;49.284;7.238;2023-03-26T21:09:15;97709.94;;;7.11;100.00
16431;BME280;8325;49.284;7.238;2023-03-26T21:13:40;97717.94;;;7.02;100.00
16431;BME280;8325;49.284;7.238;2023-03-26T21:17:54;97731.91;;;7.01;100.00
16431;BME280;8325;49.284;7.238;2023-03-26T21:22:38;97728.97;;;7.04;100.00
